Date,TemperatureHighF,TemperatureAvgF,TemperatureLowF,DewpointHighF,DewpointAvgF,DewpointLowF,HumidityHigh,HumidityAvg,HumidityLow,PressureMaxIn,PressureMinIn,WindSpeedMaxMPH,WindSpeedAvgMPH,GustSpeedMaxMPH,PrecipitationSumIn
2013-1-1,58,53,48,49,44,41,83,71,55,30.08,29.97,7,3,9,0.00
2013-1-2,56,50,45,46,42,39,85,76,64,30.29,30.06,5,2,10,0.09
2013-1-3,57,51,45,47,43,34,83,75,58,30.61,30.29,10,4,13,0.11
2013-1-4,60,52,42,42,36,32,86,57,37,30.60,30.45,8,4,12,0.00
2013-1-5,69,61,54,43,35,30,52,39,28,30.44,30.23,8,4,13,0.00
2013-1-6,69,57,48,46,38,32,69,51,31,30.31,30.22,4,2,5,0.00
2013-1-7,71,58,48,51,40,31,68,51,34,30.23,30.14,4,1,4,0.00
2013-1-8,67,54,46,53,45,40,84,74,54,30.28,30.21,3,1,5,0.00
2013-1-9,59,49,41,49,42,36,86,77,63,30.24,30.08,7,3,10,0.01
2013-1-10,62,56,49,46,43,38,68,61,54,30.09,30.01,11,5,18,0.00
2013-1-11,63,55,44,47,43,35,84,64,45,30.12,30.04,6,2,9,0.00
2013-1-12,63,51,43,49,40,31,84,67,44,30.10,29.91,6,3,10,0.00
2013-1-13,55,51,47,48,41,37,82,68,59,29.90,29.74,10,6,19,0.25
2013-1-14,55,49,42,42,39,36,85,69,52,29.97,29.86,8,3,14,0.09
2013-1-15,56,50,43,43,40,37,82,68,52,29.93,29.76,12,5,17,0.03
2013-1-16,59,54,50,44,42,38,76,64,52,29.88,29.56,11,7,17,0.00
2013-1-17,59,50,46,46,41,36,82,70,56,29.78,29.57,10,4,17,0.00
2013-1-18,62,56,50,52,46,38,82,70,59,29.74,29.47,12,4,14,0.01
2013-1-19,64,57,51,54,50,45,91,78,51,29.47,29.05,14,7,25,0.21
2013-1-20,54,50,48,48,42,37,84,74,59,29.57,29.06,9,4,14,0.06
2013-1-21,56,52,50,46,40,33,78,65,51,29.82,29.50,10,5,22,0.02
2013-1-22,54,49,42,45,36,32,82,63,50,29.83,29.48,15,6,18,0.13
2013-1-23,50,47,42,39,35,31,83,63,51,29.79,29.47,12,7,33,0.01
2013-1-24,50,47,43,45,39,30,86,74,47,29.78,29.53,12,6,26,0.92
2013-1-25,56,47,39,41,36,30,87,67,40,29.89,29.75,6,3,15,0.02
2013-1-26,56,48,42,46,39,28,86,71,53,30.08,29.71,9,3,24,0.14
2013-1-27,60,53,43,51,46,39,89,78,59,30.08,29.81,7,4,17,0.00
2013-1-28,57,52,46,49,43,37,86,72,55,30.28,29.79,13,4,25,0.32
2013-1-29,60,50,43,50,42,36,84,74,56,30.35,30.27,6,2,9,0.00
2013-1-30,66,52,43,50,43,36,86,72,51,30.32,30.23,6,2,10,0.00
2013-1-31,69,59,49,51,47,43,83,64,49,30.41,30.29,5,2,8,0.00
2013-2-1,64,54,46,55,47,43,92,78,48,30.29,29.73,12,3,17,0.01
2013-2-2,62,53,47,48,41,37,79,64,50,29.81,29.56,14,8,19,0.46
2013-2-3,49,46,40,37,30,25,70,54,39,30.29,29.79,14,4,23,0.01
2013-2-4,63,49,38,40,36,31,83,63,31,30.34,30.24,6,2,11,0.00
2013-2-5,62,52,44,48,42,37,83,69,53,30.25,29.91,9,3,13,0.00
2013-2-6,55,51,47,44,37,34,69,60,51,29.90,29.73,15,8,33,0.03
2013-2-7,48,47,46,37,36,34,67,66,63,29.85,29.75,10,5,18,0.00
2013-2-8,54,46,41,40,36,32,79,68,56,29.98,29.83,9,2,10,0.03
2013-2-9,48,44,39,37,32,27,78,64,46,30.12,29.94,6,3,11,0.00
2013-2-10,61,52,45,47,40,34,82,64,38,30.09,29.67,11,6,22,0.00
2013-2-11,56,50,46,47,36,30,83,60,50,29.69,29.56,12,6,19,0.13
2013-2-12,53,49,44,40,35,28,75,59,43,29.92,29.59,11,6,20,0.17
2013-2-13,57,43,45,44,19,-100,75,55,41,30.09,29.88,6,-142,9,0.00
2013-2-14,63,21,51,48,-46,-100,74,23,55,30.15,30.08,4,-629,6,0.00
2013-2-15,62,21,52,50,-47,-100,88,22,49,30.14,30.04,7,-633,14,0.00
2013-2-16,61,20,53,47,-51,-100,78,21,53,30.14,30.05,6,-659,7,0.00
2013-2-17,55,14,53,48,-61,-100,82,20,73,30.05,29.89,3,-733,4,0.00
2013-2-18,58,10,51,54,-71,-100,91,16,74,29.93,29.83,3,-810,5,0.01
2013-2-19,58,22,50,50,-42,-100,90,29,60,29.95,29.88,4,-600,9,0.00
2013-2-20,62,23,46,42,-44,-100,69,20,41,29.91,29.82,4,-594,6,0.00
2013-2-21,64,15,58,51,-65,-100,71,14,54,29.86,29.63,6,-759,10,0.00
2013-2-22,59,21,53,49,-46,-100,83,26,59,29.63,29.46,8,-629,12,0.17
2013-2-23,43,13,40,37,-59,-100,84,23,72,29.82,29.30,5,-696,9,0.00
2013-2-24,49,19,41,34,-46,-100,65,24,50,29.92,29.82,7,-584,11,0.00
2013-2-25,45,12,39,38,-61,-100,89,22,59,30.06,29.92,4,-715,5,0.00
2013-2-26,51,21,38,38,-39,-100,85,29,57,30.14,30.03,5,-549,13,0.00
2013-2-27,55,20,45,39,-47,-100,76,22,50,30.15,30.03,6,-608,8,0.00
2013-2-28,50,2,49,47,-95,-100,91,3,90,30.03,29.76,5,-967,5,0.00
2013-3-1,55,15,47,48,-56,-100,93,25,69,29.81,29.62,4,-701,7,0.00
2013-3-2,63,26,50,44,-35,-100,64,26,46,30.06,29.79,8,-534,13,0.00
2013-3-3,63,18,57,47,-57,-100,68,16,39,30.06,29.92,4,-697,5,0.00
2013-3-4,63,19,54,52,-52,-100,82,24,68,29.93,29.67,5,-682,10,0.00
2013-3-5,66,21,56,53,-49,-100,81,23,62,29.66,29.27,4,-665,7,0.00
2013-3-6,65,40,53,52,2,-100,90,51,57,29.53,29.22,10,-316,14,0.00
2013-3-7,72,62,55,55,51,47,90,70,47,29.70,29.52,10,6,21,0.00
2013-3-8,68,62,55,55,48,44,89,59,43,29.74,29.56,12,7,19,0.00
2013-3-9,68,60,53,52,47,41,90,64,40,29.72,29.65,13,5,16,0.00
2013-3-10,63,58,53,51,44,40,90,62,47,29.67,29.57,11,6,22,0.00
2013-3-11,61,57,52,44,42,40,70,57,47,29.66,29.57,11,7,18,0.00
2013-3-12,63,56,50,44,40,35,77,57,41,29.60,29.49,11,5,18,0.00
2013-3-13,58,47,40,49,42,35,87,82,62,29.58,29.30,13,3,13,1.83
2013-3-14,51,46,41,38,34,30,86,63,49,29.77,29.58,13,6,18,0.03
2013-3-15,56,48,40,36,33,28,68,55,37,30.06,29.77,9,4,12,0.00
2013-3-16,59,48,38,44,37,24,85,68,46,30.06,29.84,5,2,5,0.00
2013-3-17,65,55,45,52,45,37,86,72,52,29.84,29.45,12,4,14,0.22
2013-3-18,61,57,48,52,41,28,85,59,33,29.75,29.40,10,5,15,0.07
2013-3-19,66,54,44,52,46,39,88,74,47,29.74,29.54,5,2,9,0.00
2013-3-20,59,53,47,50,46,42,86,77,56,30.07,29.50,6,3,10,0.01
2013-3-21,64,54,46,52,47,41,85,78,66,30.09,29.93,6,3,9,0.00
2013-3-22,70,56,46,50,45,36,82,67,46,29.93,29.69,6,2,8,0.00
2013-3-23,66,57,52,51,49,46,88,75,55,29.70,29.55,7,3,11,0.00
2013-3-24,65,57,51,51,46,42,84,67,46,29.59,29.47,6,2,11,0.00
2013-3-25,65,58,50,47,43,39,79,57,42,29.73,29.57,12,6,19,0.00
2013-3-26,69,62,56,54,49,46,89,63,44,29.64,29.51,12,5,19,0.17
2013-3-27,67,60,55,53,51,48,90,74,54,29.66,29.51,7,3,13,0.00
2013-3-28,71,61,54,58,53,48,91,76,51,29.82,29.60,7,3,12,0.00
2013-3-29,71,60,51,53,50,47,87,71,48,29.81,29.66,9,4,16,0.00
2013-3-30,67,64,62,52,44,38,68,49,38,29.76,29.57,14,9,24,0.00
2013-3-31,70,62,55,51,42,36,82,50,32,29.75,29.61,11,5,18,0.00
2013-4-1,66,60,54,55,49,40,92,71,46,29.60,29.37,10,5,19,0.34
2013-4-2,64,56,47,50,43,39,87,65,44,29.76,29.60,9,4,14,0.00
2013-4-3,71,61,50,48,43,39,72,53,36,29.77,29.56,6,3,10,0.00
2013-4-4,66,58,52,53,46,41,84,63,45,29.58,29.43,7,3,8,0.00
2013-4-5,66,56,49,51,47,42,84,72,49,29.68,29.54,6,2,10,0.31
2013-4-6,53,48,45,44,39,35,82,71,56,29.92,29.67,9,4,16,0.13
2013-4-7,66,53,46,44,40,34,76,61,37,30.00,29.91,7,3,10,0.00
2013-4-8,65,56,48,50,46,43,87,69,49,29.91,29.79,9,4,13,0.00
2013-4-9,70,59,49,50,44,38,86,61,31,29.91,29.81,10,4,15,0.00
2013-4-10,76,62,50,54,49,44,86,64,36,30.01,29.90,7,3,13,0.00
2013-4-11,71,63,55,58,53,48,85,71,46,30.00,29.81,9,5,19,0.00
2013-4-12,76,67,56,51,47,42,75,49,38,30.04,29.83,10,3,14,0.00
2013-4-13,78,63,53,50,45,38,78,54,24,30.22,30.04,5,2,8,0.00
2013-4-14,76,65,54,48,40,33,62,42,31,30.24,30.18,6,2,11,0.00
2013-4-15,80,68,57,50,44,37,63,43,29,30.21,30.10,5,2,8,0.00
2013-4-16,80,66,54,56,47,35,77,52,27,30.16,30.09,7,2,9,0.00
2013-4-17,80,67,56,54,49,44,75,55,35,30.17,30.11,5,2,7,0.00
2013-4-18,83,67,56,52,46,42,69,49,30,30.14,30.06,5,2,10,0.00
2013-4-19,71,61,55,54,48,45,79,63,50,30.16,30.04,8,3,13,0.00
2013-4-20,63,57,51,46,42,38,74,59,45,30.17,30.07,8,3,13,0.00
2013-4-21,69,58,51,50,47,36,85,69,31,30.11,30.00,6,3,10,0.00
2013-4-22,64,55,50,52,46,40,86,74,43,30.08,29.99,5,1,7,0.00
2013-4-23,67,57,47,48,43,38,79,61,38,30.17,30.07,7,3,15,0.00
2013-4-24,66,58,53,52,49,46,83,71,54,30.17,30.05,8,5,12,0.04
2013-4-25,60,58,57,56,54,51,93,85,74,30.04,29.89,10,6,14,0.68
2013-4-26,69,60,56,59,56,53,93,89,70,29.94,29.76,5,2,8,0.20
2013-4-27,59,55,50,56,52,48,93,91,84,29.78,29.63,5,2,10,0.28
2013-4-28,60,55,50,58,52,48,93,90,84,29.77,29.63,6,3,9,0.46
2013-4-29,60,56,54,58,53,51,94,92,85,29.81,29.67,6,2,8,0.48
2013-4-30,69,58,48,53,50,43,88,74,54,29.98,29.79,6,3,9,0.00
2013-5-1,70,58,50,53,49,47,89,74,47,30.02,29.96,4,2,7,0.00
2013-5-2,72,61,51,54,50,46,85,69,45,30.02,29.95,4,2,7,0.00
2013-5-3,67,60,53,51,47,44,77,63,46,30.05,29.96,7,3,13,0.00
2013-5-4,70,61,51,50,47,44,81,62,42,30.11,30.03,6,2,8,0.00
2013-5-5,71,63,53,54,49,44,85,62,44,30.11,30.05,8,3,10,0.00
2013-5-6,75,61,51,58,51,-100,85,72,49,30.11,30.03,6,-5,11,0.00
2013-5-7,80,67,56,62,52,47,88,64,32,30.07,29.95,6,2,15,0.00
2013-5-8,85,73,61,59,53,48,69,52,30,29.99,29.90,6,2,14,0.00
2013-5-9,86,71,63,60,55,50,71,58,36,29.97,29.89,6,2,12,0.00
2013-5-10,74,66,58,58,51,46,79,60,44,30.07,29.90,7,3,10,0.00
2013-5-11,70,62,56,56,53,48,87,73,59,30.12,30.03,4,2,7,0.05
2013-5-12,72,62,54,58,54,50,89,75,57,30.15,30.08,7,2,12,0.00
2013-5-13,74,63,52,57,53,47,86,70,47,30.16,30.02,6,2,11,0.00
2013-5-14,78,66,55,60,55,51,86,70,46,30.05,29.71,6,2,9,0.00
2013-5-15,69,62,56,58,55,52,86,79,66,29.70,29.45,5,2,8,0.00
2013-5-16,63,59,53,59,49,38,92,73,44,29.60,29.41,7,2,10,0.07
2013-5-17,66,59,51,54,49,44,84,70,49,29.64,29.51,9,5,16,0.06
2013-5-18,66,61,58,56,48,38,88,66,39,29.85,29.60,11,6,16,0.05
2013-5-19,69,62,56,48,44,38,71,53,38,30.03,29.84,8,5,16,0.00
2013-5-20,66,58,52,52,48,45,82,70,54,30.05,30.00,5,1,5,0.00
2013-5-21,63,56,52,53,50,47,84,78,63,30.04,29.83,5,2,11,0.17
2013-5-22,72,62,54,54,50,47,83,65,44,29.91,29.82,9,4,13,0.01
2013-5-23,69,62,55,53,50,48,81,66,51,29.92,29.85,9,3,13,0.00
2013-5-24,71,61,53,51,46,42,83,61,37,30.02,29.88,6,3,9,0.00
2013-5-25,57,54,52,52,48,45,86,79,63,30.02,29.94,7,3,8,0.00
2013-5-26,70,64,57,51,47,-100,72,57,51,30.08,29.96,6,-15,9,0.00
2013-5-27,65,59,52,58,52,43,88,77,68,30.00,29.78,4,2,7,0.00
2013-5-28,76,64,54,58,52,46,92,68,36,29.81,29.69,8,4,18,0.01
2013-5-29,67,60,54,54,45,-100,89,63,38,29.86,29.77,8,-5,12,0.00
2013-5-30,65,60,53,49,45,39,74,59,39,29.92,29.79,11,5,16,0.01
2013-5-31,68,63,58,49,47,44,67,57,45,29.94,29.79,10,5,14,0.00
2013-6-1,76,66,60,52,46,42,73,51,31,30.02,29.89,9,5,15,0.01
2013-6-2,79,69,58,52,47,43,65,48,32,30.03,29.97,8,3,18,0.00
2013-6-3,77,66,57,53,49,46,71,56,37,30.03,29.97,8,3,11,0.00
2013-6-4,79,67,55,54,51,48,78,58,38,30.02,29.93,6,2,10,0.00
2013-6-5,79,67,58,53,49,45,71,54,35,29.97,29.91,6,2,9,0.00
2013-6-6,85,72,58,55,50,45,68,47,29,30.04,29.94,7,2,10,0.00
2013-6-7,81,70,60,60,55,48,82,60,40,30.05,29.94,6,2,9,0.00
2013-6-8,76,67,62,61,55,45,90,69,36,30.00,29.86,7,3,13,0.06
2013-6-9,75,67,59,58,54,49,86,65,42,29.92,29.80,10,5,18,0.00
2013-6-10,78,69,59,59,55,50,76,60,46,30.02,29.85,6,2,11,0.00
2013-6-11,81,69,58,64,58,50,79,69,55,30.06,29.99,8,3,13,0.00
2013-6-12,86,74,63,60,56,49,70,53,38,30.11,30.05,7,3,12,0.00
2013-6-13,90,78,64,60,55,52,69,47,32,30.06,29.99,6,2,11,0.00
2013-6-14,90,77,66,62,57,53,73,52,31,30.03,29.96,7,2,11,0.00
2013-6-15,95,81,66,56,51,43,60,37,23,30.00,29.94,5,2,9,0.00
2013-6-16,96,82,70,57,52,48,55,37,20,29.99,29.85,5,2,7,0.00
2013-6-17,101,84,73,67,58,47,75,42,28,29.87,29.72,6,2,10,0.00
2013-6-18,80,73,67,67,65,55,87,77,49,29.82,29.71,7,3,9,0.00
2013-6-19,83,72,61,62,56,48,84,61,32,29.96,29.80,8,3,10,0.00
2013-6-20,81,70,60,63,57,49,75,63,51,30.06,29.94,7,2,9,0.00
2013-6-21,85,73,61,62,56,51,79,58,36,30.09,29.99,6,2,9,0.00
2013-6-22,82,71,64,65,60,54,85,68,49,30.12,30.06,7,2,10,0.02
2013-6-23,84,72,60,63,57,52,86,62,36,30.13,30.06,7,2,11,0.00
2013-6-24,74,68,64,62,58,56,82,70,58,30.19,30.12,4,2,8,0.00
2013-6-25,78,68,63,59,57,55,77,67,50,30.19,30.13,5,2,7,0.00
2013-6-26,77,69,61,59,58,56,84,69,50,30.20,30.16,7,2,9,0.00
2013-6-27,80,70,58,57,53,46,82,57,39,30.20,30.10,6,2,9,0.00
2013-6-28,77,68,61,59,56,52,78,66,52,30.21,30.13,6,2,10,0.00
2013-6-29,83,72,60,60,56,52,79,60,36,30.22,30.14,7,3,11,0.00
2013-6-30,85,73,63,63,59,55,81,63,39,30.18,30.03,7,2,9,0.00
2013-7-1,86,74,62,64,60,54,80,62,41,30.05,29.93,6,2,7,0.00
2013-7-2,86,73,64,65,62,58,84,70,45,30.01,29.94,7,2,10,0.00
2013-7-3,87,74,64,68,64,60,88,73,48,30.07,29.95,6,2,9,0.00
2013-7-4,83,75,68,67,64,60,80,69,55,30.14,30.04,7,2,10,0.00
2013-7-5,87,75,64,65,60,54,85,62,36,30.16,30.11,8,2,15,0.00
2013-7-6,90,77,64,62,57,53,69,51,33,30.16,30.11,6,2,9,0.00
2013-7-7,94,82,67,63,58,55,67,47,31,30.14,30.06,6,2,11,0.00
2013-7-8,91,81,69,64,58,54,63,47,30,30.10,30.04,7,2,9,0.00
2013-7-9,92,80,69,65,60,56,66,51,32,30.08,29.97,6,3,9,0.00
2013-7-10,92,79,69,66,63,60,74,59,39,30.00,29.86,6,2,12,0.00
2013-7-11,91,79,72,68,64,59,72,60,37,29.91,29.83,6,2,8,0.00
2013-7-12,95,81,69,67,63,59,77,57,32,29.97,29.90,8,2,8,0.00
2013-7-13,85,78,72,65,59,51,70,54,38,30.02,29.95,4,1,7,0.00
2013-7-14,92,80,69,62,58,54,65,48,30,30.06,29.99,6,2,8,0.00
2013-7-15,95,81,70,66,62,58,70,53,31,30.08,30.02,7,2,7,0.00
2013-7-16,96,83,72,65,61,57,63,49,31,30.08,30.01,6,2,11,0.00
2013-7-17,95,82,71,66,62,58,66,52,34,30.08,30.01,6,2,9,0.00
2013-7-18,92,79,72,68,62,57,68,57,37,30.06,30.00,7,2,11,0.00
2013-7-19,92,81,70,67,62,59,76,55,38,30.04,29.91,5,2,10,0.00
2013-7-20,94,82,71,65,58,51,64,45,29,29.95,29.87,6,2,9,0.00
2013-7-21,93,82,70,70,60,52,76,49,30,30.00,29.92,6,2,10,0.02
2013-7-22,94,80,70,68,63,55,81,56,29,30.00,29.92,6,2,9,0.00
2013-7-23,92,80,71,69,65,61,76,60,45,29.96,29.89,6,2,12,0.00
2013-7-24,92,82,70,69,63,55,70,54,34,30.00,29.94,7,3,10,0.00
2013-7-25,100,85,70,62,57,48,57,40,24,30.00,29.92,7,2,9,0.00
2013-7-26,99,86,74,61,55,44,56,36,23,29.94,29.82,7,2,10,0.00
2013-7-27,102,86,76,73,66,58,79,52,34,29.86,29.74,6,2,10,0.00
2013-7-28,96,84,76,72,67,57,82,58,37,29.96,29.75,8,4,13,0.00
2013-7-29,91,81,75,70,63,56,77,57,34,30.16,29.92,9,4,13,0.00
2013-7-30,89,79,70,68,64,59,82,62,40,30.19,30.10,7,2,11,0.00
2013-7-31,95,82,69,68,62,56,75,55,32,30.12,29.97,6,2,12,0.00
2013-8-1,95,81,69,66,60,52,72,52,26,30.00,29.95,6,2,9,0.00
2013-8-2,97,84,72,67,59,53,55,44,31,30.01,29.94,5,2,9,0.00
2013-8-3,98,85,74,67,60,53,56,44,30,30.04,29.96,5,2,8,0.00
2013-8-4,98,84,74,64,60,52,60,44,28,30.07,30.01,6,2,9,0.00
2013-8-5,98,84,73,69,61,54,65,47,29,30.03,29.92,6,2,10,0.00
2013-8-6,102,86,75,73,63,50,81,48,26,29.94,29.79,7,2,10,0.00
2013-8-7,91,82,75,76,72,63,84,73,59,29.81,29.70,7,4,10,0.00
2013-8-8,84,79,72,73,64,54,83,62,38,30.09,29.76,7,3,12,0.00
2013-8-9,86,77,67,63,58,53,74,54,33,30.13,30.06,7,3,11,0.00
2013-8-10,90,79,68,65,62,58,75,57,37,30.11,30.03,6,2,11,0.00
2013-8-11,91,79,67,67,64,60,81,63,40,30.06,29.98,7,2,10,0.00
2013-8-12,94,81,69,69,64,57,76,59,31,30.00,29.91,6,2,9,0.00
2013-8-13,95,82,72,69,61,52,75,52,27,29.99,29.93,7,2,12,0.00
2013-8-14,88,80,73,66,63,60,73,58,46,30.01,29.97,6,2,11,0.00
2013-8-15,89,79,70,68,65,61,76,62,43,30.04,29.99,6,2,7,0.00
2013-8-16,93,80,69,70,67,64,84,67,40,30.04,29.96,6,2,10,0.00
2013-8-17,90,79,72,72,67,62,85,70,41,30.02,29.96,6,1,10,0.52
2013-8-22,89,83,74,65,63,58,71,53,37,29.98,29.91,5,3,9,0.00
2013-8-23,92,78,69,69,64,58,78,64,35,29.94,29.90,6,2,6,0.00
2013-8-24,92,78,67,70,65,57,83,67,40,29.93,29.88,6,2,8,0.00
2013-8-25,77,74,72,69,65,63,81,73,66,29.93,29.80,4,1,5,0.00
2013-8-26,74,71,68,68,67,65,92,88,75,29.86,29.76,5,1,5,0.93
2013-8-27,81,72,68,67,66,64,92,81,59,29.95,29.84,4,1,6,0.28
2013-8-28,82,72,67,68,63,60,89,73,52,30.01,29.93,5,2,8,0.05
2013-8-29,82,74,67,64,60,49,77,63,50,30.04,29.95,8,3,14,0.00
2013-8-30,78,74,70,61,58,48,68,58,40,30.07,29.95,6,2,9,0.00
2013-8-31,84,76,68,59,58,54,72,54,40,30.11,30.04,6,3,13,0.00
2013-9-1,84,75,68,61,57,53,67,54,41,30.14,30.07,8,3,10,0.00
2013-9-2,86,75,66,64,59,54,75,58,42,30.17,30.10,6,2,10,0.00
2013-9-3,86,75,68,64,61,56,78,64,41,30.17,30.10,6,2,8,0.00
2013-9-4,85,75,67,68,63,61,88,69,46,30.15,30.03,6,2,10,0.00
2013-9-5,88,76,65,66,60,52,79,61,35,30.03,29.87,6,2,11,0.00
2013-9-6,88,76,66,66,62,57,84,65,36,29.93,29.84,6,2,12,0.00
2013-9-7,82,73,66,68,63,57,84,72,60,30.05,29.92,8,2,9,0.00
2013-9-8,86,75,71,69,66,60,86,75,51,30.13,29.98,6,2,8,0.02
2013-9-9,82,73,69,66,64,62,84,75,56,30.17,30.11,5,2,8,0.00
2013-9-10,84,72,66,67,64,61,90,76,50,30.12,30.00,5,2,7,0.00
2013-9-11,73,68,64,66,62,59,91,84,74,30.09,29.99,6,2,9,0.65
2013-9-12,76,68,63,63,60,58,87,75,60,30.13,30.07,5,1,6,0.00
2013-9-13,82,70,62,64,61,58,89,74,48,30.19,30.12,5,1,9,0.00
2013-9-14,83,72,63,66,62,59,88,73,47,30.19,30.02,5,2,10,0.00
2013-9-15,86,73,68,70,65,62,86,77,53,30.04,29.90,6,2,10,0.00
2013-9-16,82,72,65,69,65,61,91,81,55,29.99,29.82,6,2,9,0.00
2013-9-17,79,71,65,66,62,57,85,74,59,29.96,29.82,5,2,7,0.00
2013-9-18,82,70,62,66,59,53,89,70,42,29.96,29.86,6,2,11,0.00
2013-9-19,80,71,65,66,60,53,86,69,55,29.96,29.84,7,2,9,0.00
2013-9-20,78,70,65,67,63,59,88,77,62,30.10,29.96,4,2,8,0.00
2013-9-21,83,70,62,65,61,55,90,73,47,30.19,30.10,6,2,8,0.27
2013-9-22,82,70,60,66,61,56,91,76,51,30.21,30.15,4,1,7,0.02
2013-9-23,82,70,61,65,60,57,88,73,47,30.16,30.05,4,1,5,0.00
2013-9-24,83,72,62,65,62,59,89,72,49,30.05,29.95,5,1,8,0.00
2013-9-25,85,72,62,65,61,58,87,70,47,29.97,29.90,4,1,7,0.00
2013-9-26,85,73,63,69,64,59,89,76,57,29.99,29.92,5,2,10,0.00
2013-9-27,90,76,64,68,57,38,85,55,30,29.95,29.81,5,1,8,0.00
2013-9-28,83,75,70,69,66,60,88,76,46,29.81,29.71,7,3,12,0.00
2013-9-29,79,73,69,66,62,58,86,70,54,29.74,29.67,8,4,16,0.00
2013-9-30,82,74,68,64,61,58,75,64,49,29.76,29.68,9,3,11,0.00
2013-10-1,88,76,67,71,64,59,88,68,40,29.80,29.72,7,3,11,0.00
2013-10-2,88,77,68,71,65,60,87,69,46,29.85,29.77,5,2,8,0.00
2013-10-3,82,75,69,70,68,63,87,78,63,29.94,29.82,5,2,9,0.00
2013-10-4,86,76,71,73,69,66,89,80,63,29.99,29.87,6,2,8,0.00
2013-10-5,79,73,67,68,63,57,84,71,56,30.14,29.98,7,2,10,0.00
2013-10-6,76,68,62,59,58,56,81,71,51,30.15,30.10,6,2,9,0.00
2013-10-7,76,67,61,59,57,55,82,71,50,30.15,30.09,4,1,5,0.00
2013-10-8,79,64,58,59,55,51,84,73,48,30.16,30.12,4,1,8,0.00
2013-10-10,74,69,61,62,58,50,75,67,58,29.90,29.85,6,3,9,0.00
2013-10-11,66,62,58,59,56,51,86,80,69,29.94,29.86,3,1,7,0.09
2013-10-12,74,65,59,62,59,56,89,81,63,30.06,29.94,3,1,7,0.01
2013-10-13,79,69,63,66,61,58,90,77,50,30.08,30.02,5,2,8,0.00
2013-10-14,79,68,60,64,60,56,87,78,59,30.09,30.03,6,2,10,0.00
2013-10-15,79,71,65,65,61,56,87,72,46,30.09,29.96,5,3,11,0.00
2013-10-16,86,74,65,62,59,57,80,60,41,30.05,29.97,5,2,10,0.00
2013-10-17,80,71,63,65,62,58,87,75,57,30.09,30.02,6,2,9,0.00
2013-10-18,83,70,64,67,62,60,89,78,54,30.02,29.91,4,1,7,0.00
2013-10-19,84,70,62,67,63,58,89,79,56,30.02,29.95,4,1,10,0.00
2013-10-20,80,70,64,66,63,60,88,81,60,30.08,29.98,5,2,7,0.00
2013-10-21,84,71,61,66,62,55,90,74,47,30.08,29.96,4,1,9,0.00
2013-10-22,80,70,64,68,62,57,85,76,66,29.96,29.84,7,2,9,0.00
2013-10-23,77,71,66,65,61,54,85,71,48,30.00,29.85,7,3,9,0.00
2013-10-24,80,69,62,64,58,53,84,69,47,30.03,29.96,6,2,8,0.00
2013-10-25,84,72,62,66,60,52,85,68,47,30.00,29.93,4,1,7,0.00
2013-10-26,87,74,68,69,62,52,87,66,50,30.06,29.94,5,1,7,0.00
2013-10-27,86,71,64,69,63,60,91,78,48,30.17,30.06,5,1,7,0.01
2013-10-28,78,69,62,67,62,55,87,78,64,30.14,29.92,7,3,12,0.00
2013-10-29,71,64,59,63,58,52,90,83,72,30.00,29.87,13,2,13,0.44
2013-10-30,63,60,55,52,46,43,72,59,49,30.11,29.97,6,3,14,0.01
2013-10-31,70,60,52,52,48,44,77,64,48,30.17,30.09,6,2,14,0.00
2013-11-1,76,63,54,54,49,44,74,61,35,30.17,30.09,4,2,8,0.00
2013-11-2,73,66,61,60,57,53,84,74,57,30.09,29.98,5,3,8,0.00
2013-11-3,77,66,59,61,58,53,85,74,49,30.02,29.95,6,3,9,0.00
2013-11-4,70,64,60,60,56,48,88,76,56,29.99,29.65,11,5,15,0.07
2013-11-5,74,68,64,59,55,49,77,62,54,29.82,29.70,17,8,24,0.01
2013-11-6,79,70,62,60,56,54,79,62,46,30.05,29.82,11,4,21,0.00
2013-11-7,77,66,59,66,59,51,86,77,63,30.05,29.98,6,2,11,0.00
2013-11-8,74,66,60,61,57,51,85,73,46,30.01,29.92,7,3,13,0.00
2013-11-9,64,60,54,57,53,44,82,76,66,30.14,30.00,5,2,9,0.01
2013-11-10,68,63,53,53,49,44,72,60,51,30.13,29.96,15,7,31,0.00
2013-11-11,69,61,57,53,47,29,76,60,29,30.10,30.01,5,1,7,0.00
2013-11-12,68,62,56,48,39,29,62,44,31,30.09,30.02,8,4,15,0.00
2013-11-13,65,61,56,53,49,43,72,66,57,30.09,30.04,6,2,9,0.00
2013-11-15,50,49,48,39,38,38,71,67,64,29.96,29.95,7,6,11,0.17
2013-11-18,58,54,51,52,49,47,94,83,69,29.57,29.38,8,4,10,0.35
2013-11-19,57,54,52,53,50,47,91,84,73,29.79,29.33,12,4,24,2.46
2013-11-20,51,47,43,49,43,38,92,86,73,29.92,29.76,5,1,7,0.31
2013-11-21,58,53,48,44,40,36,72,62,50,29.89,29.57,11,6,16,0.01
2013-11-22,54,50,44,43,39,36,85,68,56,29.70,29.50,11,4,14,0.69
2013-11-23,52,47,44,44,38,35,85,73,58,29.78,29.64,5,2,6,0.07
2013-11-24,53,48,44,43,41,38,82,77,63,29.97,29.77,6,1,10,0.05
2013-11-25,49,48,46,43,42,42,85,82,79,30.04,29.96,2,1,6,0.05
2013-12-11,59,55,50,51,49,46,86,80,74,30.53,30.45,3,0,4,0.00
2013-12-12,63,53,46,52,46,43,91,79,59,30.47,30.33,3,1,5,0.00
2013-12-13,61,51,43,49,44,39,87,79,58,30.33,30.22,4,1,7,0.01
2013-12-14,61,50,44,51,44,41,92,81,55,30.49,30.32,5,1,9,0.01
2013-12-15,65,54,44,50,42,34,88,67,37,30.50,30.43,6,2,9,0.00
2013-12-16,62,52,46,51,46,41,89,80,62,30.48,30.40,3,1,3,0.00
2013-12-17,59,54,51,52,50,48,88,84,75,30.41,30.28,2,0,3,0.00
2013-12-18,63,53,46,54,47,43,90,81,58,30.29,30.19,4,1,7,0.00
2013-12-19,57,55,53,54,52,49,92,88,80,30.19,29.78,10,4,12,0.69
2013-12-20,54,52,51,51,47,44,93,82,73,30.36,29.76,12,5,18,0.20
2013-12-21,61,54,50,54,49,46,91,85,73,30.45,30.36,4,1,8,0.00
2013-12-22,63,55,49,55,50,46,92,84,66,30.44,30.34,3,1,4,0.00
2013-12-23,60,52,46,53,48,43,92,86,74,30.36,30.18,8,2,12,0.02
2013-12-24,59,56,54,52,51,49,88,84,78,30.18,29.79,10,6,14,0.00
2013-12-25,58,53,52,54,43,-100,92,81,74,29.78,29.31,14,-49,19,0.65
2013-12-26,54,18,51,38,-53,-100,58,18,50,29.89,29.40,15,-653,24,0.00
2013-12-27,65,22,52,52,-48,-100,79,22,55,29.95,29.86,9,-647,10,0.00
2013-12-28,65,19,57,53,-54,-100,84,21,56,30.02,29.78,9,-695,16,0.00
2013-12-29,55,12,51,41,-68,-100,64,14,58,30.33,30.02,6,-772,12,0.00
2013-12-30,59,16,46,44,-59,-100,81,16,41,30.34,30.24,5,-703,9,0.00
2013-12-31,56,27,47,46,-27,-100,75,34,59,30.24,30.04,5,-478,9,0.00
2014-1-1,63,52,44,49,44,37,85,73,56,30.07,29.99,9,3,14,0.00
2014-1-2,62,57,53,50,48,47,85,74,62,29.99,29.91,9,4,14,0.00